Time;durP1;ratioP1;P1;durP2;ratioP2;P2;SDS_P1;SDS_P2;PMS_P1;PMS_P2;Temp;Humidity;BMP_temperature;BMP_pressure;BME280_temperature;BME280_humidity;BME280_pressure;Samples;Min_cycle;Max_cycle;Signal;HPM_P1;HPM_P2
2024/01/26 00:06:20;;;;;;;10.25;7.05;;;10.20;78.30;;;;;;20992943;28;20025;-54
2024/01/26 00:16:21;;;;;;;9.88;6.78;;;10.20;78.50;;;;;;21002565;28;20039;-54
2024/01/26 00:26:22;;;;;;;10.02;7.35;;;10.20;78.40;;;;;;21007498;28;20086;-55
2024/01/26 00:36:23;;;;;;;10.18;7.35;;;10.00;78.40;;;;;;21007955;28;20093;-54
2024/01/26 00:46:24;;;;;;;10.68;6.95;;;10.00;78.40;;;;;;21007035;28;20512;-55
2024/01/26 00:56:25;;;;;;;8.93;6.72;;;9.90;78.50;;;;;;21006714;28;20498;-54
2024/01/26 01:06:26;;;;;;;8.95;6.45;;;9.80;78.60;;;;;;21005786;28;20040;-53
2024/01/26 01:16:28;;;;;;;7.80;5.97;;;9.70;78.80;;;;;;21004781;28;20428;-54
2024/01/26 01:26:29;;;;;;;8.00;5.78;;;9.70;78.80;;;;;;21002954;28;20035;-55
2024/01/26 01:36:30;;;;;;;10.32;6.60;;;9.50;78.80;;;;;;21003414;28;20086;-54
2024/01/26 01:46:31;;;;;;;9.32;7.10;;;9.50;78.90;;;;;;21001194;28;20055;-54
2024/01/26 01:56:35;;;;;;;13.13;6.68;;;9.40;78.90;;;;;;21000459;28;20063;-54
2024/01/26 02:06:36;;;;;;;10.35;6.55;;;9.40;78.80;;;;;;20999568;28;20033;-54
2024/01/26 02:16:37;;;;;;;9.65;6.30;;;9.40;78.80;;;;;;20998569;28;20032;-54
2024/01/26 02:26:38;;;;;;;9.90;6.75;;;9.30;78.90;;;;;;20999021;28;20027;-54
2024/01/26 02:36:39;;;;;;;11.02;6.55;;;9.20;78.90;;;;;;20997906;28;20040;-54
2024/01/26 02:46:41;;;;;;;8.02;6.07;;;9.20;79.00;;;;;;20996102;28;20052;-55
2024/01/26 02:56:42;;;;;;;8.77;6.00;;;9.20;78.80;;;;;;20996870;28;20037;-54
2024/01/26 03:06:43;;;;;;;8.27;6.43;;;9.10;78.70;;;;;;20996438;28;20099;-54
2024/01/26 03:16:44;;;;;;;9.95;5.50;;;9.00;78.60;;;;;;20995845;28;20060;-55
2024/01/26 03:26:45;;;;;;;5.47;4.60;;;8.90;78.30;;;;;;20994296;28;20097;-54
2024/01/26 03:36:47;;;;;;;5.90;4.95;;;8.80;78.20;;;;;;20995146;28;20546;-55
2024/01/26 03:46:50;;;;;;;8.73;5.53;;;8.80;77.90;;;;;;20997611;28;20083;-55
2024/01/26 03:56:51;;;;;;;8.38;5.68;;;8.60;77.90;;;;;;21009770;28;20063;-54
2024/01/26 04:06:52;;;;;;;5.45;4.57;;;8.50;77.90;;;;;;21010295;28;20051;-55
2024/01/26 04:16:53;;;;;;;7.55;4.80;;;8.50;77.70;;;;;;21009507;28;20036;-55
2024/01/26 04:26:54;;;;;;;5.85;4.82;;;8.30;77.80;;;;;;21008936;28;20051;-55
2024/01/26 04:36:55;;;;;;;7.55;5.15;;;8.30;77.70;;;;;;21007784;28;20178;-54
2024/01/26 04:46:57;;;;;;;6.78;4.95;;;8.30;77.80;;;;;;21005704;28;20528;-55
2024/01/26 04:56:58;;;;;;;7.40;4.60;;;8.20;77.90;;;;;;21005209;28;20036;-55
2024/01/26 05:06:59;;;;;;;6.90;4.70;;;8.20;78.00;;;;;;21005702;28;20067;-56
2024/01/26 05:17:00;;;;;;;6.05;4.60;;;8.10;78.10;;;;;;21005041;28;20032;-55
2024/01/26 05:27:01;;;;;;;8.40;5.20;;;8.00;78.10;;;;;;21003093;28;20095;-56
2024/01/26 05:37:02;;;;;;;6.72;5.60;;;8.00;78.20;;;;;;21001940;28;20043;-54
2024/01/26 05:47:05;;;;;;;6.53;4.38;;;7.90;78.10;;;;;;21002200;28;20049;-55
2024/01/26 05:57:06;;;;;;;6.85;4.80;;;8.00;78.20;;;;;;21001674;28;20064;-55
2024/01/26 06:07:07;;;;;;;6.82;4.60;;;7.90;78.10;;;;;;21000937;28;20048;-55
2024/01/26 06:17:08;;;;;;;7.07;5.30;;;7.80;78.10;;;;;;20998229;28;20100;-55
2024/01/26 06:27:09;;;;;;;6.00;4.38;;;7.80;77.90;;;;;;20999504;28;20104;-56
2024/01/26 06:37:10;;;;;;;6.65;4.38;;;7.70;77.70;;;;;;20997166;28;20100;-55
2024/01/26 06:47:11;;;;;;;7.18;5.00;;;7.60;77.80;;;;;;20997165;28;20049;-57
2024/01/26 06:57:12;;;;;;;9.75;4.43;;;7.50;77.90;;;;;;20997145;28;20044;-54
2024/01/26 07:07:13;;;;;;;7.72;6.07;;;7.60;78.00;;;;;;20995213;28;20025;-55
2024/01/26 07:17:14;;;;;;;7.05;5.30;;;7.60;78.00;;;;;;20994530;28;20489;-55
2024/01/26 07:27:15;;;;;;;9.20;5.78;;;7.60;78.00;;;;;;20993436;28;20033;-58
2024/01/26 07:37:16;;;;;;;7.82;5.35;;;7.60;77.80;;;;;;20993513;28;20046;-55
2024/01/26 07:47:22;;;;;;;5.07;4.17;;;7.50;77.50;;;;;;20994109;28;20177;-55
2024/01/26 07:57:25;;;;;;;6.75;4.97;;;7.50;77.50;;;;;;20993658;28;20032;-55
2024/01/26 08:07:26;;;;;;;5.65;4.30;;;7.40;77.70;;;;;;20993721;28;20429;-55
2024/01/26 08:17:27;;;;;;;8.48;4.40;;;7.50;77.70;;;;;;20992082;28;20036;-58
2024/01/26 08:27:28;;;;;;;7.68;4.82;;;7.40;77.80;;;;;;20992650;28;20034;-54
2024/01/26 08:37:31;;;;;;;7.45;4.75;;;7.50;77.80;;;;;;21002655;28;20036;-54
2024/01/26 08:47:33;;;;;;;7.15;4.53;;;7.60;77.60;;;;;;21005396;28;20063;-54
2024/01/26 08:57:36;;;;;;;9.15;4.50;;;7.80;77.10;;;;;;21005019;28;20508;-55
2024/01/26 09:07:38;;;;;;;6.30;4.60;;;7.90;76.80;;;;;;21004601;28;20103;-56
2024/01/26 09:17:40;;;;;;;4.45;3.80;;;8.20;76.40;;;;;;21004839;28;20036;-57
2024/01/26 09:27:45;;;;;;;7.90;4.90;;;8.60;76.20;;;;;;21003595;28;20032;-55
2024/01/26 09:37:48;;;;;;;9.80;5.68;;;9.00;75.60;;;;;;21002768;28;20040;-54
2024/01/26 09:47:52;;;;;;;7.88;6.13;;;9.40;74.90;;;;;;21000493;28;20053;-56
2024/01/26 09:57:56;;;;;;;12.43;6.90;;;9.70;73.80;;;;;;20999908;28;20078;-53
2024/01/26 10:07:59;;;;;;;12.52;8.25;;;10.00;73.40;;;;;;20990935;28;20041;-54
2024/01/26 10:18:02;;;;;;;15.93;9.98;;;10.30;72.70;;;;;;20999208;28;20049;-56
2024/01/26 10:28:09;;;;;;;13.93;9.38;;;10.70;71.80;;;;;;20998428;28;20416;-54
2024/01/26 10:38:14;;;;;;;14.48;9.55;;;11.20;70.30;;;;;;20997921;28;20065;-53
2024/01/26 10:48:16;;;;;;;11.90;8.27;;;11.70;68.40;;;;;;20995748;28;20067;-54
2024/01/26 10:58:19;;;;;;;15.00;7.32;;;12.00;66.90;;;;;;20996248;28;20032;-54
2024/01/26 11:08:25;;;;;;;14.48;6.82;;;12.40;64.80;;;;;;20995793;28;20017;-55
2024/01/26 11:18:28;;;;;;;12.63;6.70;;;12.80;63.10;;;;;;20993208;28;20036;-54
2024/01/26 11:28:31;;;;;;;14.27;7.82;;;13.10;61.60;;;;;;20924939;28;20060;-55
2024/01/26 11:38:33;;;;;;;12.68;6.47;;;13.40;61.20;;;;;;20826659;28;20120;-52
2024/01/26 11:48:35;;;;;;;13.35;7.72;;;13.70;59.70;;;;;;20827391;28;20120;-54
2024/01/26 11:58:39;;;;;;;16.30;6.25;;;14.00;60.20;;;;;;20828034;28;20045;-54
2024/01/26 12:08:40;;;;;;;8.07;5.30;;;14.20;58.00;;;;;;20832511;28;20022;-55
2024/01/26 12:18:46;;;;;;;9.63;5.20;;;14.60;55.20;;;;;;20841638;28;20030;-56
2024/01/26 12:28:47;;;;;;;7.77;4.33;;;14.80;55.30;;;;;;20841248;28;20026;-56
2024/01/26 12:38:50;;;;;;;10.68;4.93;;;15.00;53.80;;;;;;20840897;28;20119;-55
2024/01/26 12:48:53;;;;;;;9.57;4.95;;;15.20;52.90;;;;;;20841230;28;20045;-55
2024/01/26 12:58:56;;;;;;;13.40;5.70;;;15.40;52.40;;;;;;20839420;28;20051;-55
2024/01/26 13:08:58;;;;;;;12.43;6.57;;;15.50;51.90;;;;;;20840364;28;20029;-55
2024/01/26 13:19:01;;;;;;;11.52;6.35;;;15.80;52.10;;;;;;20839388;28;20505;-54
2024/01/26 13:29:04;;;;;;;14.63;8.02;;;15.90;52.10;;;;;;20954385;28;20532;-55
2024/01/26 13:39:05;;;;;;;18.08;11.07;;;16.10;51.30;;;;;;20993491;28;20050;-55
2024/01/26 13:49:09;;;;;;;18.47;12.13;;;16.50;50.40;;;;;;20992185;28;20048;-56
2024/01/26 13:59:12;;;;;;;19.25;12.77;;;16.50;51.00;;;;;;20996562;28;20040;-55
2024/01/26 14:09:14;;;;;;;14.35;7.63;;;16.50;51.50;;;;;;20999526;28;20050;-55
2024/01/26 14:19:18;;;;;;;13.48;7.65;;;16.70;51.10;;;;;;20997685;28;20055;-55
2024/01/26 14:29:19;;;;;;;6.47;4.43;;;16.60;51.80;;;;;;20996718;28;20070;-55
2024/01/26 14:39:22;;;;;;;7.45;4.65;;;17.00;50.70;;;;;;20997946;28;20044;-55
2024/01/26 14:49:24;;;;;;;13.25;5.07;;;16.80;51.70;;;;;;20997077;28;20094;-55
2024/01/26 14:59:27;;;;;;;10.52;5.82;;;16.90;51.20;;;;;;20997450;28;20416;-56
2024/01/26 15:09:30;;;;;;;15.70;9.55;;;17.00;50.80;;;;;;20996182;28;20481;-54
2024/01/26 15:19:34;;;;;;;20.67;10.95;;;17.00;51.30;;;;;;20994764;28;20028;-55
2024/01/26 15:29:37;;;;;;;12.45;8.00;;;16.90;51.10;;;;;;20993221;28;20063;-55
2024/01/26 15:39:38;;;;;;;10.18;6.07;;;16.90;49.10;;;;;;20992925;28;20477;-55
2024/01/26 15:49:41;;;;;;;7.22;3.45;;;16.90;47.40;;;;;;21008046;28;20044;-55
2024/01/26 15:59:44;;;;;;;8.95;4.10;;;17.00;46.50;;;;;;21010785;28;20060;-55
2024/01/26 16:09:45;;;;;;;10.63;6.80;;;16.90;46.80;;;;;;21009616;28;20091;-55
2024/01/26 16:19:48;;;;;;;6.97;3.35;;;16.80;46.00;;;;;;21007960;28;20116;-55
2024/01/26 16:29:50;;;;;;;12.20;6.30;;;16.70;46.10;;;;;;21007132;28;20032;-56
2024/01/26 16:39:53;;;;;;;13.48;4.82;;;16.70;47.10;;;;;;21005929;28;20150;-56
2024/01/26 16:49:55;;;;;;;21.33;7.65;;;16.70;48.10;;;;;;20979426;28;20087;-55
2024/01/26 16:59:57;;;;;;;16.67;9.30;;;16.40;50.90;;;;;;20922261;28;20041;-56
2024/01/26 17:10:01;;;;;;;16.65;6.78;;;16.30;53.50;;;;;;20921340;28;20099;-56
2024/01/26 17:20:04;;;;;;;15.85;7.80;;;16.20;55.30;;;;;;20921689;28;20389;-57
2024/01/26 17:30:07;;;;;;;19.83;8.20;;;16.20;56.80;;;;;;20921376;28;20060;-56
2024/01/26 17:40:11;;;;;;;17.67;9.73;;;15.90;58.00;;;;;;20920135;28;20451;-56
2024/01/26 17:50:13;;;;;;;17.13;6.23;;;15.80;59.70;;;;;;20900489;28;20399;-58
2024/01/26 18:00:16;;;;;;;15.65;7.15;;;15.70;60.70;;;;;;20919209;28;20029;-55
2024/01/26 18:10:19;;;;;;;18.40;7.72;;;15.60;61.50;;;;;;20916867;28;20343;-58
2024/01/26 18:20:22;;;;;;;20.17;7.65;;;15.60;63.40;;;;;;20913997;28;20028;-56
2024/01/26 18:30:25;;;;;;;17.38;10.77;;;15.40;62.80;;;;;;20914174;28;20040;-56
2024/01/26 18:40:27;;;;;;;20.88;10.38;;;15.20;63.40;;;;;;20908128;28;20036;-57
2024/01/26 18:50:30;;;;;;;38.78;20.27;;;15.10;63.40;;;;;;20908817;28;20049;-56
2024/01/26 19:00:33;;;;;;;27.35;12.27;;;15.00;63.60;;;;;;20912832;28;20512;-56
2024/01/26 19:10:36;;;;;;;26.33;11.85;;;15.00;64.40;;;;;;20913093;28;20052;-55
2024/01/26 19:20:40;;;;;;;13.93;8.77;;;14.80;65.00;;;;;;20911021;28;20097;-56
2024/01/26 19:30:43;;;;;;;20.27;7.30;;;14.60;65.00;;;;;;20911256;28;20056;-56
2024/01/26 19:40:45;;;;;;;13.18;5.82;;;14.30;65.30;;;;;;20909050;28;20041;-56
2024/01/26 19:50:48;;;;;;;12.48;5.30;;;14.40;66.30;;;;;;20907382;28;20049;-56
2024/01/26 20:00:51;;;;;;;9.52;4.47;;;14.20;65.30;;;;;;20908593;28;20056;-57
2024/01/26 20:10:55;;;;;;;8.75;4.25;;;13.90;66.00;;;;;;20905678;28;20039;-55
2024/01/26 20:20:59;;;;;;;7.80;4.55;;;13.70;66.20;;;;;;20909987;28;20029;-55
2024/01/26 20:31:00;;;;;;;8.02;3.97;;;13.70;66.50;;;;;;20916612;28;20055;-56
2024/01/26 20:41:02;;;;;;;11.52;5.22;;;13.50;67.00;;;;;;20923384;28;20036;-56
2024/01/26 20:51:03;;;;;;;10.82;6.53;;;13.40;67.30;;;;;;20922005;28;20506;-55
2024/01/26 21:01:04;;;;;;;7.55;4.15;;;13.30;67.40;;;;;;20922135;28;20120;-56
2024/01/26 21:11:05;;;;;;;8.13;4.55;;;13.00;68.10;;;;;;20920511;28;20069;-55
2024/01/26 21:21:06;;;;;;;5.13;3.63;;;12.70;68.60;;;;;;20920411;28;20161;-58
2024/01/26 21:31:09;;;;;;;6.53;4.25;;;12.60;68.90;;;;;;20920884;28;20116;-54
2024/01/26 21:41:10;;;;;;;4.93;3.35;;;12.50;69.10;;;;;;20916941;28;20021;-56
2024/01/26 21:51:12;;;;;;;6.75;3.92;;;12.40;69.10;;;;;;20918484;28;20056;-55
2024/01/26 22:01:15;;;;;;;5.82;4.28;;;12.20;69.50;;;;;;20917535;28;20512;-54
2024/01/26 22:11:17;;;;;;;6.80;4.90;;;12.00;69.30;;;;;;20917338;28;20079;-54
2024/01/26 22:21:18;;;;;;;6.93;4.85;;;11.80;69.80;;;;;;20917020;28;20048;-57
2024/01/26 22:31:22;;;;;;;7.70;5.10;;;11.70;69.80;;;;;;20916432;28;20500;-56
2024/01/26 22:41:23;;;;;;;9.52;6.75;;;11.60;69.90;;;;;;20914841;28;20053;-56
2024/01/26 22:51:24;;;;;;;7.78;5.05;;;11.60;70.00;;;;;;20914105;28;20060;-54
2024/01/26 23:01:25;;;;;;;6.45;4.70;;;11.40;70.10;;;;;;20913485;28;20059;-55
2024/01/26 23:11:27;;;;;;;9.40;5.18;;;11.40;70.20;;;;;;20912862;28;20044;-55
2024/01/26 23:21:28;;;;;;;6.65;4.57;;;11.30;70.20;;;;;;20913539;28;20067;-55
2024/01/26 23:31:31;;;;;;;5.97;4.20;;;11.20;70.30;;;;;;20912897;28;20029;-54
2024/01/26 23:41:32;;;;;;;6.28;4.18;;;11.20;70.50;;;;;;20912606;28;20037;-54
2024/01/26 23:51:33;;;;;;;4.60;3.50;;;11.10;70.40;;;;;;20910650;28;20449;-55
